Flight Number: AVA1257 Duration: 1:45
Departure: Warszawa-Okecie (EPWA) at 23:45 Distance: 621.712 Nm
Arrival: Moscow Sheremetyevo (UUEE) at 01:30 Equipment: A321

Weather Information
Warszawa-Okecie, Poland (EPWA) 52-10N 020-58E 107M May 30, 2020 - 03:30 AM EDT / 2020.05.30 0730 UTC
Wind: from the NNW (330 degrees) at 13 MPH (11 KT):0
Visibility: greater than 7 mile(s):0
Sky conditions: mostly clear Weather: light rain showers; Cumulonimbus clouds observed Temperature: 53 F (12 C) Dew Point: 41 F (5 C) Relative Humidity: 62% Pressure (altimeter): 30.03 in. Hg (1017 hPa)
ob: EPWA 300730Z 33011KT 9999 -SHRA FEW050CB 12/05 Q1017 NOSIG cycle: 7
Sunrise: 02:26 Sunset: 18:40 (UTC)

Moscow / Sheremet'Ye , Russia (UUEE) 55-59N 037-30E May 30, 2020 - 03:30 AM EDT / 2020.05.30 0730 UTC
Wind: from the ENE (060 degrees) at 13 MPH (12 KT):0
Visibility: greater than 7 mile(s):0
Sky conditions: mostly cloudy Temperature: 60 F (16 C) Dew Point: 57 F (14 C) Relative Humidity: 87% Pressure (altimeter): 29.88 in. Hg (1012 hPa)
ob: UUEE 300730Z 06006MPS 9999 BKN011 16/14 Q1012 R06R/CLRD62 NOSIG cycle: 7
Sunrise: 00:59 Sunset: 17:57 (UTC)

TAF:2020/05/30 06:21 TAF UUEE 300453Z 3006/3106 04005G10MPS 9999 BKN016 TX23/3012Z TN12/3106Z TEMPO 3006/3008 BKN007 TEMPO 3009/3018 04009G16MPS TEMPO 3018/3106 03010G17MPS 1200 TSRA FEW003 BKN015CB

This route has never been flown.

Route map